Orbital elements of H-2A DEB
| Launched | 16 May 2012 |
| Flight ended | – |
| Launch site | Tanegashima Space Center, Japan |
| Owner | Japan |
| NORAD ID | 38347 |
| Date fetched |
Epoch osculation |
Inc. [°] |
Ecc. | RA asc node [hr] |
Arg Peri. [°] |
Mean anom [°] |
Mean motion [rev/day] |
Abs. mag |
| Date fetched |
Epoch osculation |
Inc. [°] |
Ecc. | RA asc node [hr] |
Arg Peri. [°] |
Mean anom [°] |
Mean motion [rev/day] |
Abs. mag |
| 2026 May 05 17:57 | 2026 May 05 08:48:45 | 98.1997 | 0.00051 | 17.0776 | 247.6946 | 112.3733 | 14.93074 | 6.000 |
| 2026 May 04 17:57 | 2026 Apr 30 14:36:50 | 98.1987 | 0.00050 | 16.7471 | 267.8687 | 112.3733 | 14.93074 | 6.000 |
| 2026 May 03 17:57 | 2026 Apr 30 14:36:50 | 98.1987 | 0.00050 | 16.7471 | 267.8687 | 112.3733 | 14.93074 | 6.000 |
| 2026 May 02 17:57 | 2026 Apr 30 14:36:50 | 98.1987 | 0.00050 | 16.7471 | 267.8687 | 112.3733 | 14.93074 | 6.000 |
| 2026 May 01 17:56 | 2026 Apr 30 14:36:50 | 98.1987 | 0.00050 | 16.7471 | 267.8687 | 112.3733 | 14.93074 | 6.000 |
| 2026 Apr 30 17:56 | 2026 Apr 30 14:36:50 | 98.1987 | 0.00050 | 16.7471 | 267.8687 | 112.3733 | 14.93074 | 6.000 |
| 2026 Apr 29 17:57 | 2026 Apr 24 07:25:00 | 98.1977 | 0.00048 | 16.3096 | 293.1037 | 112.3733 | 14.93074 | 6.000 |
| 2026 Apr 28 17:56 | 2026 Apr 24 07:25:00 | 98.1977 | 0.00048 | 16.3096 | 293.1037 | 112.3733 | 14.93074 | 6.000 |
| 2026 Apr 27 17:58 | 2026 Apr 24 07:25:00 | 98.1977 | 0.00048 | 16.3096 | 293.1037 | 112.3733 | 14.93074 | 6.000 |
| 2026 Apr 26 17:58 | 2026 Apr 24 07:25:00 | 98.1977 | 0.00048 | 16.3096 | 293.1037 | 112.3733 | 14.93074 | 6.000 |
| 2026 Apr 25 17:58 | 2026 Apr 24 07:25:00 | 98.1977 | 0.00048 | 16.3096 | 293.1037 | 112.3733 | 14.93074 | 6.000 |
| 2026 Apr 24 17:59 | 2026 Apr 24 07:25:00 | 98.1977 | 0.00048 | 16.3096 | 293.1037 | 112.3733 | 14.93074 | 6.000 |
| 2026 Apr 23 17:57 | 2026 Apr 19 08:23:07 | 98.1971 | 0.00051 | 15.9652 | 312.5717 | 112.3733 | 14.93074 | 6.000 |
| 2026 Apr 22 17:57 | 2026 Apr 19 08:23:07 | 98.1971 | 0.00051 | 15.9652 | 312.5717 | 112.3733 | 14.93074 | 6.000 |
| 2026 Apr 21 17:57 | 2026 Apr 19 08:23:07 | 98.1971 | 0.00051 | 15.9652 | 312.5717 | 112.3733 | 14.93074 | 6.000 |
| 2026 Apr 20 17:57 | 2026 Apr 19 08:23:07 | 98.1971 | 0.00051 | 15.9652 | 312.5717 | 112.3733 | 14.93074 | 6.000 |
| 2026 Apr 19 17:58 | 2026 Apr 19 08:23:07 | 98.1971 | 0.00051 | 15.9652 | 312.5717 | 112.3733 | 14.93074 | 6.000 |
| 2026 Apr 18 17:56 | 2026 Apr 13 07:36:53 | 98.1956 | 0.00053 | 15.5464 | 337.9441 | 112.3733 | 14.93074 | 6.000 |
| 2026 Apr 16 17:57 | 2026 Apr 13 07:36:53 | 98.1956 | 0.00053 | 15.5464 | 337.9441 | 112.3733 | 14.93074 | 6.000 |
| 2026 Apr 14 17:57 | 2026 Apr 13 07:36:53 | 98.1956 | 0.00053 | 15.5464 | 337.9441 | 112.3733 | 14.93074 | 6.000 |
| 2026 Apr 13 17:57 | 2026 Apr 13 07:36:53 | 98.1956 | 0.00053 | 15.5464 | 337.9441 | 112.3733 | 14.93074 | 6.000 |
| 2026 Apr 12 17:57 | 2026 Apr 08 06:58:14 | 98.1943 | 0.00056 | 15.1975 | 354.2291 | 112.3733 | 14.93074 | 6.000 |
| 2026 Apr 11 17:57 | 2026 Apr 08 06:58:14 | 98.1943 | 0.00056 | 15.1975 | 354.2291 | 112.3733 | 14.93074 | 6.000 |
| 2026 Apr 10 17:58 | 2026 Apr 08 06:58:14 | 98.1943 | 0.00056 | 15.1975 | 354.2291 | 112.3733 | 14.93074 | 6.000 |
| 2026 Apr 09 18:01 | 2026 Apr 08 06:58:14 | 98.1943 | 0.00056 | 15.1975 | 354.2291 | 112.3733 | 14.93074 | 6.000 |
| 2026 Apr 08 17:57 | 2026 Apr 08 06:58:14 | 98.1943 | 0.00056 | 15.1975 | 354.2291 | 112.3733 | 14.93074 | 6.000 |